KGVL

Lee Gilmer Memorial Airport

Gainesville, Georgia, USA
METAR KGVL 201853Z AUTO 26012KT 10SM OVC100 18/13 A2996 RMK AO2 SLP137 T01830133
Observed Flight Rules
Oct-20 @ 18:53 UTC (27 minutes ago) Visual Flight Rules
Wind Visibility Clouds
260° at 12 knots 10 miles
  • Overcast at 10,000' AGL
Temperatures Readings
Current 18°C / 64°F
Dewpoint 13°C / 55°F
Humidity 73%
Altimeter 29.96" Hg
Pressure 1013.7 hPa
Elevation 386
METAR KGVL 201853Z AUTO 26012KT 10SM OVC100 18/13 A2996 RMK AO2 SLP137 T01830133
Observed Flight Rules
Oct-20 @ 18:53 UTC
(27 minutes ago)
VFR
Wind Visibility
260° at 12 knots 10 miles
Clouds
  • Overcast at 10,000' AGL
Temperature Dewpoint
18°C / 64°F 13°C / 55°F
Humidity Altimeter Pressure
73% 29.96" Hg 1013.7 hPa